Terminal Aerodrome Forecast
Issued by NWS North Platte, NE

Home | Current Version | Previous Version | Graphics & Text | Print | Product List | Glossary On
Versions: 1 2 3 4 5 6 7 8 9 10 11 12 13 14 15
000
FTUS43 KLBF 131726
TAFVTN
TAF
KVTN 131726Z 1318/1418 32023G33KT P6SM FEW250
     FM132100 33018G26KT P6SM FEW250
     FM140000 33012KT P6SM BKN250
     FM140600 32009KT P6SM BKN060
     FM141200 30008KT P6SM -SN OVC025
     FM141600 31016G25KT P6SM -RASN OVC020=

USA.gov is the U.S. government's official web portal to all federal, state and local government web resources and services.